Macau International Airport
VMMC : now visible

Airfield :











YOU CAN JOIN US ON...

 
LOGIN :

Register | Disclaimer

   EN    FR    IT 

 









Legend :    VFR   Marginal VFR   IFR   Intensive IFR   Very Intensive IFR
Visi :
Ceiling :
>= 8 km
>= 3000ft
5 to 8 km
1000 to 3000 ft
1500m to 5 km
500 to 1000 ft
800 to 1500m
200 to 500 ft
< 800m
< 200 ft
Symbols :   Thunderstorms  Fog  Heavy snow  Heavy precipitations  Wind > 20 kt







- Airport Elevation : 20 ft
- IATA code : MFM


VMMC - Macau International

CURRENT METAR :
  • 230630Z 36012KT 4500 -RA BR FEW004 SCT020 19/19 Q1016 NOSIG

EXPIRED METARs :
  • 230600Z 01010KT 4800 -RA BR FEW004 SCT020 20/19 Q1016 NOSIG
  • 230530Z 01009KT 6000 -SHRA FEW005 SCT022 20/19 Q1016 TEMPO 4000 BR
  • 230500Z 03008KT 330V100 7000 -SHRA FEW005 SCT022 20/19 Q1017 NOSIG
  • 230430Z 10013KT 9999 FEW012 SCT025 21/19 Q1017 NOSIG
  • 230400Z 09010KT 070V140 9999 FEW012 SCT025 21/18 Q1018 NOSIG

TAF TAF VMMC
Valid from the 23 at 06:00 until the 24 at 12:00 UTC


230500Z 2306/2412 02010KT 7000 FEW006 SCT020
TEMPO 2306/2312 08012KT
BECMG 2404/2406 08010KT
ZGZU FIR / Asia



MET'MAP, your aeronautical weather chart ! - Copyright ORBIFLY December 2007 - Disclaimer

ORBIFLY MET'MAP TEAM :

Programming & Development : Alexandra Zaïnal
Concept & Development : Baudouin d'Aumeries
Co-Development & Prog : Marc-Olivier Méhu
Technical & hardware support : Manuel Goepfert

Contact : metmap@orbifly.com




SOURCES & CREDITS :

   NOAA       Earth
Advisory